createdAt,value
2022-11-26T00:02:22.301Z,4.82
2022-11-26T00:04:52.610Z,4.90
2022-11-26T00:07:26.690Z,4.93
2022-11-26T00:09:57.001Z,4.98
2022-11-26T00:12:29.789Z,4.98
2022-11-26T00:14:59.640Z,4.88
2022-11-26T00:17:29.330Z,4.91
2022-11-26T00:19:59.841Z,4.89
2022-11-26T00:22:33.152Z,4.86
2022-11-26T00:25:02.763Z,4.88
2022-11-26T00:27:33.594Z,4.83
2022-11-26T00:30:02.665Z,4.83
2022-11-26T00:32:32.956Z,4.81
2022-11-26T00:35:02.961Z,4.84
2022-11-26T00:37:42.003Z,4.90
2022-11-26T00:40:24.227Z,4.94
2022-11-26T00:43:01.480Z,4.98
2022-11-26T00:45:33.462Z,5.02
2022-11-26T00:48:03.156Z,5.07
2022-11-26T00:50:39.690Z,5.11
2022-11-26T00:53:14.089Z,5.15
2022-11-26T00:55:47.526Z,5.18
2022-11-26T00:58:26.396Z,5.20
2022-11-26T01:00:56.198Z,5.23
2022-11-26T01:03:26.037Z,5.26
2022-11-26T01:06:00.013Z,5.28
2022-11-26T01:08:33.799Z,5.29
2022-11-26T01:11:06.098Z,5.32
2022-11-26T01:13:37.122Z,5.35
2022-11-26T01:16:22.187Z,5.33
2022-11-26T01:18:55.648Z,5.34
2022-11-26T01:21:26.510Z,5.36
2022-11-26T01:23:56.466Z,5.34
2022-11-26T01:26:34.107Z,5.37
2022-11-26T01:29:06.040Z,5.41
2022-11-26T01:31:36.155Z,5.45
2022-11-26T01:34:05.595Z,5.46
2022-11-26T01:36:37.622Z,5.50
2022-11-26T01:39:16.976Z,5.50
2022-11-26T01:41:53.823Z,5.52
2022-11-26T01:44:27.985Z,5.54
2022-11-26T01:46:59.594Z,5.55
2022-11-26T01:49:31.883Z,5.54
2022-11-26T01:52:08.365Z,5.55
2022-11-26T01:54:41.865Z,5.58
2022-11-26T01:57:16.372Z,5.61
2022-11-26T01:59:52.916Z,5.62
2022-11-26T02:02:24.302Z,5.61
2022-11-26T02:05:05.321Z,5.61
2022-11-26T02:07:34.099Z,5.60
2022-11-26T02:10:03.780Z,5.57
2022-11-26T02:12:33.341Z,5.54
2022-11-26T02:15:04.495Z,5.52
2022-11-26T02:17:40.751Z,5.50
2022-11-26T02:20:37.002Z,5.47
2022-11-26T02:24:13.858Z,5.46
2022-11-26T02:27:34.311Z,5.44
2022-11-26T02:30:11.319Z,5.42
2022-11-26T02:32:58.963Z,5.36
2022-11-26T02:35:37.861Z,5.39
2022-11-26T02:38:12.684Z,5.41
2022-11-26T02:40:42.204Z,5.42
2022-11-26T02:43:11.061Z,5.42
2022-11-26T02:45:45.246Z,5.41
2022-11-26T02:48:23.261Z,5.34
2022-11-26T02:51:00.301Z,5.36
2022-11-26T02:53:39.742Z,5.37
2022-11-26T02:56:17.102Z,5.34
2022-11-26T02:58:47.224Z,5.33
2022-11-26T03:01:29.249Z,5.35
2022-11-26T03:04:07.672Z,5.35
2022-11-26T03:06:37.418Z,5.32
2022-11-26T03:09:08.285Z,5.25
2022-11-26T03:11:37.887Z,5.24
2022-11-26T03:14:07.013Z,5.20
2022-11-26T03:16:38.347Z,5.18
2022-11-26T03:19:07.254Z,5.14
2022-11-26T03:21:37.347Z,5.13
2022-11-26T03:24:08.110Z,5.07
2022-11-26T03:26:37.660Z,5.07
2022-11-26T03:29:06.708Z,5.04
2022-11-26T03:31:38.199Z,4.99
2022-11-26T03:34:08.247Z,4.92
2022-11-26T03:36:38.539Z,4.90
2022-11-26T03:39:07.971Z,4.93
2022-11-26T03:41:38.267Z,4.94
2022-11-26T03:44:08.403Z,4.89
2022-11-26T03:46:38.878Z,4.85
2022-11-26T03:49:08.629Z,4.82
2022-11-26T03:51:37.721Z,4.79
2022-11-26T03:54:07.850Z,4.81
2022-11-26T03:56:37.829Z,4.75
2022-11-26T03:59:08.150Z,4.62
2022-11-26T04:01:39.437Z,4.58
2022-11-26T04:04:08.344Z,4.51
2022-11-26T04:06:38.648Z,4.49
2022-11-26T04:09:08.136Z,4.47
2022-11-26T04:11:36.662Z,4.39
2022-11-26T04:14:05.770Z,4.36
2022-11-26T04:16:34.857Z,4.39
2022-11-26T04:19:06.510Z,4.39
2022-11-26T04:21:35.907Z,4.41
2022-11-26T04:24:06.997Z,4.28
2022-11-26T04:26:36.481Z,4.26
2022-11-26T04:29:06.007Z,4.23
2022-11-26T04:31:35.791Z,4.24
2022-11-26T04:34:11.354Z,4.26
2022-11-26T04:36:41.505Z,4.25
2022-11-26T04:39:11.187Z,4.23
2022-11-26T04:41:42.958Z,4.22
2022-11-26T04:44:12.859Z,4.23
2022-11-26T04:46:42.099Z,4.14
2022-11-26T04:49:13.132Z,4.03
2022-11-26T04:51:42.801Z,4.03
2022-11-26T04:54:13.287Z,4.05
2022-11-26T04:56:43.134Z,4.03
2022-11-26T04:59:12.015Z,4.00
2022-11-26T05:01:42.099Z,4.01
2022-11-26T05:04:13.531Z,4.03
2022-11-26T05:06:43.554Z,4.05
2022-11-26T05:09:13.393Z,4.09
2022-11-26T05:11:44.033Z,4.05
2022-11-26T05:14:14.258Z,4.07
2022-11-26T05:16:43.905Z,4.03
2022-11-26T05:19:14.940Z,4.00
2022-11-26T05:21:44.198Z,3.99
2022-11-26T05:24:13.984Z,3.99
2022-11-26T05:26:43.851Z,4.01
2022-11-26T05:29:14.280Z,3.92
2022-11-26T05:31:45.053Z,3.92
2022-11-26T05:34:15.392Z,3.92
2022-11-26T05:36:45.118Z,3.98
2022-11-26T05:39:14.004Z,4.01
2022-11-26T05:41:43.635Z,4.03
2022-11-26T05:44:13.866Z,4.04
2022-11-26T05:46:45.383Z,4.02
2022-11-26T05:49:16.334Z,4.06
2022-11-26T05:51:45.331Z,4.12
2022-11-26T05:54:16.694Z,4.07
2022-11-26T05:56:45.960Z,4.08
2022-11-26T05:59:16.208Z,4.11
2022-11-26T06:01:45.899Z,4.08
2022-11-26T06:04:17.221Z,4.08
2022-11-26T06:06:46.885Z,4.09
2022-11-26T06:09:17.179Z,4.14
2022-11-26T06:11:46.695Z,4.17
2022-11-26T06:14:16.755Z,4.17
2022-11-26T06:16:46.986Z,4.19
2022-11-26T06:19:18.322Z,4.22
2022-11-26T06:21:48.254Z,4.22
2022-11-26T06:24:19.169Z,4.20
2022-11-26T06:26:48.171Z,4.22
2022-11-26T06:29:23.477Z,4.22
2022-11-26T06:31:55.712Z,4.25
2022-11-26T06:34:26.767Z,4.25
2022-11-26T06:36:56.127Z,4.25
2022-11-26T06:39:25.258Z,4.26
2022-11-26T06:41:55.323Z,4.27
2022-11-26T06:44:24.372Z,4.28
2022-11-26T06:46:54.013Z,4.27
2022-11-26T06:49:25.513Z,4.26
2022-11-26T06:51:55.800Z,4.26
2022-11-26T06:54:25.233Z,4.24
2022-11-26T06:56:55.035Z,4.27
2022-11-26T06:59:24.841Z,4.27
2022-11-26T07:01:53.737Z,4.24
2022-11-26T07:04:24.694Z,4.24
2022-11-26T07:06:54.189Z,4.20
2022-11-26T07:09:23.381Z,4.16
2022-11-26T07:11:54.159Z,4.18
2022-11-26T07:14:23.857Z,4.12
2022-11-26T07:16:52.821Z,4.15
2022-11-26T07:19:21.521Z,4.21
2022-11-26T07:21:53.194Z,4.24
2022-11-26T07:24:23.737Z,4.26
2022-11-26T07:26:54.286Z,4.26
2022-11-26T07:29:23.441Z,4.20
2022-11-26T07:31:52.251Z,4.21
2022-11-26T07:34:22.151Z,4.20
2022-11-26T07:36:56.781Z,4.21
2022-11-26T07:39:27.678Z,4.21
2022-11-26T07:41:56.988Z,4.23
2022-11-26T07:44:27.073Z,4.24
2022-11-26T07:46:56.579Z,4.26
2022-11-26T07:49:26.288Z,4.24
2022-11-26T07:51:56.781Z,4.23
2022-11-26T07:54:27.473Z,4.24
2022-11-26T07:56:57.034Z,4.23
2022-11-26T07:59:26.160Z,4.21
2022-11-26T08:01:55.901Z,4.21
2022-11-26T08:04:25.471Z,4.23
2022-11-26T08:06:57.223Z,4.26
2022-11-26T08:10:22.445Z,4.29
2022-11-26T08:12:52.144Z,4.32
2022-11-26T08:15:22.434Z,4.37
2022-11-26T08:17:55.775Z,4.44
2022-11-26T08:20:29.077Z,4.46
2022-11-26T08:22:59.256Z,4.48
2022-11-26T08:25:28.283Z,4.51
2022-11-26T08:27:57.977Z,4.54
2022-11-26T08:30:27.794Z,4.59
2022-11-26T08:32:57.903Z,4.63
2022-11-26T08:35:51.113Z,4.66
2022-11-26T08:38:18.395Z,4.70
2022-11-26T08:40:48.001Z,4.73
2022-11-26T08:43:17.633Z,4.75
2022-11-26T08:45:54.568Z,4.79
2022-11-26T08:48:27.933Z,4.83
2022-11-26T08:51:01.907Z,4.89
2022-11-26T08:53:35.308Z,4.93
2022-11-26T08:56:08.167Z,4.98
2022-11-26T08:58:40.990Z,5.04
2022-11-26T09:01:11.787Z,5.08
2022-11-26T09:03:41.322Z,5.12
2022-11-26T09:06:12.295Z,5.15
2022-11-26T09:09:06.219Z,5.17
2022-11-26T09:11:38.299Z,5.21
2022-11-26T09:14:08.282Z,5.25
2022-11-26T09:16:38.026Z,5.30
2022-11-26T09:19:08.754Z,5.33
2022-11-26T09:21:39.076Z,5.39
2022-11-26T09:24:11.075Z,5.44
2022-11-26T09:26:40.278Z,5.46
2022-11-26T09:29:11.421Z,5.52
2022-11-26T09:32:00.707Z,5.57
2022-11-26T09:34:30.151Z,5.64
2022-11-26T09:36:59.845Z,5.68
2022-11-26T09:39:30.675Z,5.72
2022-11-26T09:42:08.590Z,5.75
2022-11-26T09:45:03.708Z,5.80
2022-11-26T09:47:42.166Z,5.85
2022-11-26T09:50:28.041Z,5.89
2022-11-26T09:53:05.460Z,5.95
2022-11-26T09:55:40.501Z,5.99
2022-11-26T09:58:26.516Z,6.04
2022-11-26T10:01:00.730Z,6.10
2022-11-26T10:03:36.419Z,6.15
2022-11-26T10:06:10.798Z,6.19
2022-11-26T10:09:26.814Z,6.25
2022-11-26T10:12:19.981Z,6.28
2022-11-26T10:15:08.709Z,6.34
2022-11-26T10:17:56.955Z,6.38
2022-11-26T10:21:05.258Z,6.44
2022-11-26T10:23:41.785Z,6.49
2022-11-26T10:26:25.220Z,6.51
2022-11-26T10:29:20.282Z,6.51
2022-11-26T10:31:54.022Z,6.52
2022-11-26T10:34:39.404Z,6.57
2022-11-26T10:37:09.821Z,6.63
2022-11-26T10:39:38.367Z,6.68
2022-11-26T10:42:17.406Z,6.69
2022-11-26T10:44:49.720Z,6.74
2022-11-26T10:47:28.101Z,6.76
2022-11-26T10:50:39.458Z,6.75
2022-11-26T10:53:07.374Z,6.72
2022-11-26T10:55:42.716Z,6.76
2022-11-26T10:58:21.111Z,6.77
2022-11-26T11:01:02.577Z,6.79
2022-11-26T11:04:06.665Z,6.84
2022-11-26T11:06:48.363Z,6.87
2022-11-26T11:09:33.645Z,6.85
2022-11-26T11:12:24.909Z,6.89
2022-11-26T11:14:54.337Z,6.89
2022-11-26T11:17:36.532Z,6.90
2022-11-26T11:20:32.277Z,6.93
2022-11-26T11:23:19.418Z,6.92
2022-11-26T11:25:59.541Z,6.97
2022-11-26T11:28:32.976Z,6.97
2022-11-26T11:31:09.680Z,6.98
2022-11-26T11:33:40.716Z,7.00
2022-11-26T11:36:28.524Z,7.01
2022-11-26T11:38:59.778Z,6.98
2022-11-26T11:41:34.232Z,6.97
2022-11-26T11:44:12.363Z,7.00
2022-11-26T11:47:35.843Z,7.06
2022-11-26T11:50:23.508Z,7.09
2022-11-26T11:53:22.720Z,7.09
2022-11-26T11:56:23.594Z,7.10
2022-11-26T11:59:20.670Z,7.12
2022-11-26T12:02:26.064Z,7.14
2022-11-26T12:05:39.569Z,7.15
2022-11-26T12:08:46.229Z,7.14
2022-11-26T12:11:32.194Z,7.16
2022-11-26T12:14:13.358Z,7.19
2022-11-26T12:16:48.427Z,7.19
2022-11-26T12:19:28.678Z,7.21
2022-11-26T12:22:09.004Z,7.23
2022-11-26T12:24:46.862Z,7.27
2022-11-26T12:27:29.489Z,7.29
2022-11-26T12:30:03.017Z,7.31
2022-11-26T12:32:41.261Z,7.34
2022-11-26T12:35:26.809Z,7.38
2022-11-26T12:38:03.343Z,7.44
2022-11-26T12:40:39.240Z,7.46
2022-11-26T12:43:15.381Z,7.46
2022-11-26T12:45:54.862Z,7.46
2022-11-26T12:48:42.514Z,7.48
2022-11-26T12:51:27.848Z,7.50
2022-11-26T12:54:16.814Z,7.51
2022-11-26T12:56:59.590Z,7.52
2022-11-26T12:59:36.933Z,7.52
2022-11-26T13:02:27.502Z,7.57
2022-11-26T13:04:59.334Z,7.58
2022-11-26T13:07:49.143Z,7.60
2022-11-26T13:10:37.498Z,7.60
2022-11-26T13:13:22.336Z,7.64
2022-11-26T13:16:04.362Z,7.68
2022-11-26T13:18:43.271Z,7.69
2022-11-26T13:21:54.941Z,7.70
2022-11-26T13:24:47.289Z,7.71
2022-11-26T13:27:50.869Z,7.73
2022-11-26T13:30:26.422Z,7.75
2022-11-26T13:33:47.753Z,7.73
2022-11-26T13:36:58.960Z,7.73
2022-11-26T13:40:13.167Z,7.70
2022-11-26T13:43:35.519Z,7.72
2022-11-26T13:46:24.437Z,7.73
2022-11-26T13:49:01.494Z,7.75
2022-11-26T13:51:40.232Z,7.77
2022-11-26T13:54:16.906Z,7.78
2022-11-26T13:56:48.334Z,7.77
2022-11-26T13:59:28.425Z,7.78
2022-11-26T14:01:58.289Z,7.78
2022-11-26T14:04:53.753Z,7.78
2022-11-26T14:07:23.814Z,7.80
2022-11-26T14:09:56.793Z,7.80
2022-11-26T14:13:04.884Z,7.82
2022-11-26T14:15:59.938Z,7.83
2022-11-26T14:19:00.638Z,7.86
2022-11-26T14:21:31.784Z,7.86
2022-11-26T14:24:02.348Z,7.84
2022-11-26T14:26:37.526Z,7.82
2022-11-26T14:29:17.523Z,7.85
2022-11-26T14:31:53.288Z,7.84
2022-11-26T14:34:38.547Z,7.85
2022-11-26T14:37:16.311Z,7.82
2022-11-26T14:39:45.343Z,7.80
2022-11-26T14:42:18.601Z,7.81
2022-11-26T14:45:01.345Z,7.82
2022-11-26T14:47:34.223Z,7.84
2022-11-26T14:50:09.498Z,7.87
2022-11-26T14:52:43.358Z,7.87
2022-11-26T14:55:24.071Z,7.83
2022-11-26T14:57:59.068Z,7.85
2022-11-26T15:00:31.253Z,7.86
2022-11-26T15:03:03.775Z,7.83
2022-11-26T15:05:40.683Z,7.82
2022-11-26T15:08:20.600Z,7.86
2022-11-26T15:10:55.650Z,7.87
2022-11-26T15:13:31.292Z,7.87
2022-11-26T15:16:03.202Z,7.89
2022-11-26T15:18:37.704Z,7.92
2022-11-26T15:21:09.207Z,7.92
2022-11-26T15:23:40.355Z,7.92
2022-11-26T15:26:20.490Z,7.91
2022-11-26T15:28:51.138Z,7.92
2022-11-26T15:31:20.314Z,7.90
2022-11-26T15:33:52.658Z,7.87
2022-11-26T15:36:23.393Z,7.77
2022-11-26T15:39:06.738Z,7.73
2022-11-26T15:41:42.747Z,7.70
2022-11-26T15:44:23.652Z,7.67
2022-11-26T15:46:57.388Z,7.66
2022-11-26T15:49:33.642Z,7.65
2022-11-26T15:52:08.961Z,7.60
2022-11-26T15:55:11.872Z,7.63
2022-11-26T15:57:36.531Z,7.57
2022-11-26T16:00:10.003Z,7.56
2022-11-26T16:02:41.096Z,7.59
2022-11-26T16:05:30.842Z,7.56
2022-11-26T16:08:02.753Z,7.52
2022-11-26T16:10:37.000Z,7.51
2022-11-26T16:13:23.223Z,7.51
2022-11-26T16:16:00.218Z,7.52
2022-11-26T16:18:38.914Z,7.48
2022-11-26T16:21:17.820Z,7.47
2022-11-26T16:23:54.681Z,7.48
2022-11-26T16:26:23.873Z,7.46
2022-11-26T16:28:55.510Z,7.44
2022-11-26T16:31:25.873Z,7.42
2022-11-26T16:33:55.072Z,7.43
2022-11-26T16:36:29.586Z,7.44
2022-11-26T16:38:58.524Z,7.44
2022-11-26T16:41:28.532Z,7.46
2022-11-26T16:43:58.692Z,7.45
2022-11-26T16:46:28.934Z,7.45
2022-11-26T16:48:58.246Z,7.45
2022-11-26T16:51:29.224Z,7.44
2022-11-26T16:53:58.334Z,7.45
2022-11-26T16:56:37.423Z,7.47
2022-11-26T16:59:15.868Z,7.45
2022-11-26T17:01:45.537Z,7.46
2022-11-26T17:04:15.506Z,7.43
2022-11-26T17:06:46.178Z,7.41
2022-11-26T17:09:20.262Z,7.44
2022-11-26T17:11:48.857Z,7.46
2022-11-26T17:14:18.928Z,7.46
2022-11-26T17:16:47.639Z,7.48
2022-11-26T17:19:17.309Z,7.49
2022-11-26T17:21:47.711Z,7.51
2022-11-26T17:24:20.699Z,7.46
2022-11-26T17:26:52.852Z,7.43
2022-11-26T17:29:22.477Z,7.44
2022-11-26T17:31:52.177Z,7.42
2022-11-26T17:34:21.835Z,7.41
2022-11-26T17:36:52.682Z,7.43
2022-11-26T17:39:22.387Z,7.46
2022-11-26T17:41:51.818Z,7.45
2022-11-26T17:44:21.350Z,7.44
2022-11-26T17:49:39.758Z,7.42
2022-11-26T17:52:11.281Z,7.43
2022-11-26T17:54:40.621Z,7.42
2022-11-26T17:57:10.985Z,7.42
2022-11-26T17:59:41.417Z,7.43
2022-11-26T18:02:11.448Z,7.44
2022-11-26T18:04:40.652Z,7.41
2022-11-26T18:07:17.749Z,7.42
2022-11-26T18:09:48.220Z,7.41
2022-11-26T18:12:24.974Z,7.43
2022-11-26T18:14:55.604Z,7.40
2022-11-26T18:17:25.765Z,7.38
2022-11-26T18:19:55.024Z,7.38
2022-11-26T18:22:28.209Z,7.39
2022-11-26T18:24:58.441Z,7.39
2022-11-26T18:27:31.123Z,7.40
2022-11-26T18:30:00.757Z,7.39
2022-11-26T18:32:30.866Z,7.40
2022-11-26T18:35:01.295Z,7.36
2022-11-26T18:37:31.776Z,7.34
2022-11-26T18:40:04.011Z,7.34
2022-11-26T18:42:38.333Z,7.36
2022-11-26T18:45:11.960Z,7.39
2022-11-26T18:47:41.580Z,7.35
2022-11-26T18:50:13.837Z,7.36
2022-11-26T18:52:44.805Z,7.37
2022-11-26T18:55:15.977Z,7.37
2022-11-26T18:57:45.135Z,7.37
2022-11-26T19:00:18.808Z,7.38
2022-11-26T19:02:49.464Z,7.37
2022-11-26T19:05:18.406Z,7.33
2022-11-26T19:07:48.894Z,7.34
2022-11-26T19:10:18.165Z,7.36
2022-11-26T19:12:50.076Z,7.34
2022-11-26T19:15:21.615Z,7.36
2022-11-26T19:17:53.207Z,7.36
2022-11-26T19:20:22.372Z,7.38
2022-11-26T19:22:53.695Z,7.37
2022-11-26T19:25:23.270Z,7.36
2022-11-26T19:27:53.036Z,7.35
2022-11-26T19:30:23.154Z,7.35
2022-11-26T19:32:52.803Z,7.36
2022-11-26T19:35:22.172Z,7.35
2022-11-26T19:37:53.784Z,7.38
2022-11-26T19:40:24.004Z,7.37
2022-11-26T19:42:53.785Z,7.38
2022-11-26T19:45:24.928Z,7.37
2022-11-26T19:47:55.022Z,7.36
2022-11-26T19:50:25.345Z,7.38
2022-11-26T19:52:55.802Z,7.36
2022-11-26T19:55:25.377Z,7.38
2022-11-26T19:57:54.609Z,7.37
2022-11-26T20:00:25.792Z,7.34
2022-11-26T20:02:56.266Z,7.34
2022-11-26T20:05:25.498Z,7.32
2022-11-26T20:07:56.406Z,7.29
2022-11-26T20:10:26.848Z,7.25
2022-11-26T20:12:55.318Z,7.25
2022-11-26T20:15:24.364Z,7.27
2022-11-26T20:17:52.928Z,7.25
2022-11-26T20:20:22.179Z,7.18
2022-11-26T20:22:50.842Z,7.21
2022-11-26T20:25:21.412Z,7.23
2022-11-26T20:27:51.717Z,7.21
2022-11-26T20:30:22.637Z,7.17
2022-11-26T20:32:52.554Z,7.17
2022-11-26T20:35:22.646Z,7.19
2022-11-26T20:37:52.333Z,7.21
2022-11-26T20:40:23.262Z,7.21
2022-11-26T20:42:52.350Z,7.18
2022-11-26T20:45:22.796Z,7.13
2022-11-26T20:47:51.913Z,7.12
2022-11-26T20:50:21.224Z,7.07
2022-11-26T20:52:50.785Z,7.07
2022-11-26T20:55:22.100Z,7.08
2022-11-26T20:57:51.633Z,7.07
2022-11-26T21:00:27.237Z,7.08
2022-11-26T21:02:56.116Z,7.04
2022-11-26T21:05:26.208Z,7.04
2022-11-26T21:07:55.999Z,7.03
2022-11-26T21:10:28.930Z,7.03
2022-11-26T21:12:58.200Z,7.00
2022-11-26T21:15:27.878Z,7.02
2022-11-26T21:17:57.292Z,7.01
2022-11-26T21:20:26.125Z,7.02
2022-11-26T21:22:56.416Z,7.04
2022-11-26T21:25:27.255Z,7.03
2022-11-26T21:27:56.948Z,7.02
2022-11-26T21:30:26.653Z,7.02
2022-11-26T21:32:55.247Z,7.05
2022-11-26T21:35:24.270Z,7.03
2022-11-26T21:37:53.268Z,7.02
2022-11-26T21:40:22.076Z,6.99
2022-11-26T21:42:52.510Z,6.98
2022-11-26T21:45:21.885Z,7.00
2022-11-26T21:47:52.334Z,6.99
2022-11-26T21:50:22.046Z,7.00
2022-11-26T21:52:50.934Z,7.00
2022-11-26T21:55:19.546Z,6.98
2022-11-26T21:57:48.400Z,6.97
2022-11-26T22:00:22.281Z,7.00
2022-11-26T22:02:51.747Z,6.98
2022-11-26T22:05:21.422Z,6.98
2022-11-26T22:07:50.688Z,6.98
2022-11-26T22:10:19.463Z,6.96
2022-11-26T22:12:49.994Z,6.96
2022-11-26T22:15:19.969Z,6.93
2022-11-26T22:17:50.198Z,6.92
2022-11-26T22:20:19.560Z,6.92
2022-11-26T22:22:49.194Z,6.92
2022-11-26T22:25:19.583Z,6.92
2022-11-26T22:27:49.917Z,6.90
2022-11-26T22:30:20.802Z,6.89
2022-11-26T22:32:49.276Z,6.89
2022-11-26T22:35:18.667Z,6.89
2022-11-26T22:37:48.524Z,6.90
2022-11-26T22:40:18.585Z,6.87
2022-11-26T22:42:47.956Z,6.88
2022-11-26T22:45:18.660Z,6.88
2022-11-26T22:47:52.681Z,6.87
2022-11-26T22:50:22.934Z,6.83
2022-11-26T22:52:52.445Z,6.82
2022-11-26T22:55:23.432Z,6.82
2022-11-26T22:57:53.846Z,6.80
2022-11-26T23:00:49.364Z,6.79
2022-11-26T23:03:22.014Z,6.77
2022-11-26T23:05:51.959Z,6.75
2022-11-26T23:08:22.845Z,6.74
2022-11-26T23:10:52.633Z,6.76
2022-11-26T23:13:21.281Z,6.76
2022-11-26T23:15:50.456Z,6.77
2022-11-26T23:18:21.962Z,6.76
2022-11-26T23:20:51.354Z,6.74
2022-11-26T23:23:21.447Z,6.74
2022-11-26T23:25:50.532Z,6.73
2022-11-26T23:28:18.995Z,6.71
2022-11-26T23:30:48.029Z,6.71
2022-11-26T23:33:17.399Z,6.71
2022-11-26T23:35:50.077Z,6.64
2022-11-26T23:38:19.138Z,6.62
2022-11-26T23:40:54.925Z,6.61
2022-11-26T23:43:24.570Z,6.58
2022-11-26T23:46:02.358Z,6.57
2022-11-26T23:48:32.776Z,6.55
2022-11-26T23:51:08.323Z,6.53
2022-11-26T23:53:38.152Z,6.51
2022-11-26T23:56:12.596Z,6.52
2022-11-26T23:58:41.596Z,6.54
